Time;durP1;ratioP1;P1;durP2;ratioP2;P2;SDS_P1;SDS_P2;PMS_P1;PMS_P2;Temp;Humidity;BMP_temperature;BMP_pressure;BME280_temperature;BME280_humidity;BME280_pressure;Samples;Min_cycle;Max_cycle;Signal;HPM_P1;HPM_P2
2024/01/30 00:00:12;;;;;;;9.20;6.57;;;;;;;;;;5089661;28;20225;-32
2024/01/30 00:02:39;;;;;;;8.27;6.57;;;;;;;;;;5076277;28;20243;-33
2024/01/30 00:05:07;;;;;;;9.50;6.73;;;;;;;;;;5079961;28;20211;-33
2024/01/30 00:07:34;;;;;;;9.20;6.03;;;;;;;;;;5092589;28;20200;-31
2024/01/30 00:10:02;;;;;;;9.23;6.17;;;;;;;;;;5078967;28;20232;-33
2024/01/30 00:12:29;;;;;;;8.13;5.87;;;;;;;;;;5085127;28;20208;-32
2024/01/30 00:14:57;;;;;;;9.27;5.80;;;;;;;;;;5088829;28;20635;-35
2024/01/30 00:17:26;;;;;;;8.87;6.50;;;;;;;;;;5082807;28;20209;-32
2024/01/30 00:19:53;;;;;;;10.60;6.93;;;;;;;;;;5082624;28;20229;-33
2024/01/30 00:22:20;;;;;;;8.60;5.60;;;;;;;;;;5092518;28;20215;-32
2024/01/30 00:24:49;;;;;;;10.63;6.10;;;;;;;;;;5073174;28;20209;-31
2024/01/30 00:27:18;;;;;;;12.57;6.73;;;;;;;;;;5080526;28;20208;-35
2024/01/30 00:29:45;;;;;;;11.07;6.03;;;;;;;;;;5083420;28;20220;-33
2024/01/30 00:32:12;;;;;;;10.87;6.87;;;;;;;;;;5083725;28;20200;-31
2024/01/30 00:34:39;;;;;;;8.83;6.40;;;;;;;;;;5077188;28;20296;-34
2024/01/30 00:37:06;;;;;;;9.27;6.17;;;;;;;;;;5084915;28;20211;-33
2024/01/30 00:39:34;;;;;;;10.37;6.60;;;;;;;;;;5074193;28;20225;-31
2024/01/30 00:42:01;;;;;;;8.53;5.97;;;;;;;;;;5081423;28;20209;-32
2024/01/30 00:44:29;;;;;;;9.30;6.43;;;;;;;;;;5080064;28;20200;-30
2024/01/30 00:46:56;;;;;;;9.97;6.07;;;;;;;;;;5086489;28;20254;-33
2024/01/30 00:49:23;;;;;;;9.10;6.03;;;;;;;;;;5081522;28;20240;-35
2024/01/30 00:51:50;;;;;;;8.43;6.07;;;;;;;;;;5085306;28;20208;-33
2024/01/30 00:54:18;;;;;;;7.23;5.53;;;;;;;;;;5075873;28;20209;-32
2024/01/30 00:56:45;;;;;;;9.60;5.87;;;;;;;;;;5077157;28;20202;-32
2024/01/30 00:59:12;;;;;;;8.73;6.13;;;;;;;;;;5090728;28;20232;-35
2024/01/30 01:01:42;;;;;;;8.77;5.60;;;;;;;;;;5084899;28;20212;-31
2024/01/30 01:04:09;;;;;;;11.93;6.40;;;;;;;;;;5079525;28;20194;-34
2024/01/30 01:06:36;;;;;;;7.43;6.20;;;;;;;;;;5086219;28;20221;-31
2024/01/30 01:09:04;;;;;;;10.03;6.07;;;;;;;;;;5096271;28;20201;-32
2024/01/30 01:11:31;;;;;;;6.73;5.13;;;;;;;;;;5097501;28;20235;-34
2024/01/30 01:13:58;;;;;;;8.13;6.10;;;;;;;;;;5092854;28;20204;-32
2024/01/30 01:16:25;;;;;;;9.43;5.87;;;;;;;;;;5103131;28;20215;-33
2024/01/30 01:18:54;;;;;;;7.90;5.53;;;;;;;;;;5103979;28;20231;-35
2024/01/30 01:21:21;;;;;;;10.30;5.63;;;;;;;;;;5086044;28;20232;-33
2024/01/30 01:23:50;;;;;;;9.63;4.97;;;;;;;;;;5101270;28;20235;-33
2024/01/30 01:26:17;;;;;;;8.27;5.40;;;;;;;;;;5085083;28;20231;-33
2024/01/30 01:28:44;;;;;;;9.00;5.77;;;;;;;;;;5097436;28;20210;-34
2024/01/30 01:31:11;;;;;;;12.50;6.50;;;;;;;;;;5096318;28;20247;-34
2024/01/30 01:33:38;;;;;;;10.30;5.80;;;;;;;;;;5102666;28;20210;-33
2024/01/30 01:36:07;;;;;;;7.13;5.13;;;;;;;;;;5085741;28;20293;-28
2024/01/30 01:38:34;;;;;;;10.13;5.27;;;;;;;;;;5103818;28;20204;-35
2024/01/30 01:41:01;;;;;;;9.00;5.80;;;;;;;;;;5092037;28;20227;-32
2024/01/30 01:43:29;;;;;;;7.23;5.83;;;;;;;;;;5102231;28;20319;-33
2024/01/30 01:45:57;;;;;;;7.83;5.30;;;;;;;;;;5104217;28;20204;-34
2024/01/30 01:48:24;;;;;;;8.97;6.13;;;;;;;;;;5087191;28;20213;-34
2024/01/30 01:50:51;;;;;;;9.33;5.33;;;;;;;;;;5095074;28;20223;-29
2024/01/30 01:53:20;;;;;;;8.53;5.60;;;;;;;;;;5104162;28;20213;-34
2024/01/30 01:55:47;;;;;;;8.43;5.73;;;;;;;;;;5086862;28;20204;-33
2024/01/30 01:58:15;;;;;;;8.80;5.43;;;;;;;;;;5102278;28;20203;-36
2024/01/30 02:00:42;;;;;;;10.13;6.33;;;;;;;;;;5087017;28;20243;-32
2024/01/30 02:03:09;;;;;;;7.67;5.67;;;;;;;;;;5094223;28;20211;-33
2024/01/30 02:05:37;;;;;;;9.97;5.07;;;;;;;;;;5109518;28;20775;-30
2024/01/30 02:08:05;;;;;;;6.03;4.43;;;;;;;;;;5109448;28;20504;-32
2024/01/30 02:10:34;;;;;;;10.47;5.43;;;;;;;;;;5075684;28;20224;-35
2024/01/30 02:13:01;;;;;;;9.73;5.47;;;;;;;;;;5090361;28;20234;-39
2024/01/30 02:15:29;;;;;;;10.80;6.00;;;;;;;;;;5090789;28;20289;-30
2024/01/30 02:17:56;;;;;;;8.10;5.53;;;;;;;;;;5084442;28;20288;-32
2024/01/30 02:20:23;;;;;;;8.73;6.00;;;;;;;;;;5097782;28;20323;-30
2024/01/30 02:22:53;;;;;;;9.50;5.40;;;;;;;;;;5095759;28;20430;-35
2024/01/30 02:25:20;;;;;;;8.07;5.17;;;;;;;;;;5086545;28;20300;-35
2024/01/30 02:27:47;;;;;;;8.37;5.23;;;;;;;;;;5104304;28;20203;-31
2024/01/30 02:30:14;;;;;;;8.70;6.10;;;;;;;;;;5106408;28;20226;-34
2024/01/30 02:32:41;;;;;;;8.77;5.53;;;;;;;;;;5105923;28;20204;-35
2024/01/30 02:35:09;;;;;;;9.37;5.30;;;;;;;;;;5081429;28;20469;-36
2024/01/30 02:37:36;;;;;;;7.93;5.20;;;;;;;;;;5109421;28;20196;-32
2024/01/30 02:40:18;;;;;;;8.23;5.50;;;;;;;;;;5089610;28;20245;-37
2024/01/30 02:43:09;;;;;;;7.60;4.77;;;;;;;;;;5088720;28;20271;-33
2024/01/30 02:45:42;;;;;;;6.00;4.80;;;;;;;;;;5110363;28;20211;-33
2024/01/30 02:48:41;;;;;;;7.70;4.77;;;;;;;;;;5087300;28;20255;-29
2024/01/30 02:51:12;;;;;;;8.00;5.67;;;;;;;;;;5083654;28;20224;-34
2024/01/30 02:53:45;;;;;;;6.67;4.67;;;;;;;;;;5093585;28;20579;-33
2024/01/30 02:56:18;;;;;;;7.77;5.47;;;;;;;;;;5093444;28;20203;-30
2024/01/30 02:58:54;;;;;;;7.17;5.73;;;;;;;;;;5094002;28;20208;-32
2024/01/30 03:01:31;;;;;;;7.30;5.07;;;;;;;;;;5093298;28;20232;-29
2024/01/30 03:04:07;;;;;;;7.63;4.80;;;;;;;;;;5085443;28;20265;-33
2024/01/30 03:06:43;;;;;;;9.70;5.63;;;;;;;;;;5104935;28;20196;-34
2024/01/30 03:09:22;;;;;;;9.77;6.13;;;;;;;;;;5093754;28;20208;-30
2024/01/30 03:12:05;;;;;;;8.73;5.30;;;;;;;;;;5093098;28;20192;-36
2024/01/30 03:14:43;;;;;;;9.47;5.67;;;;;;;;;;5111459;28;20211;-30
2024/01/30 03:17:17;;;;;;;5.83;4.83;;;;;;;;;;5093402;28;20207;-38
2024/01/30 03:19:49;;;;;;;7.93;5.73;;;;;;;;;;5095607;28;20319;-29
2024/01/30 03:22:19;;;;;;;8.90;4.90;;;;;;;;;;5081757;28;20305;-29
2024/01/30 03:24:58;;;;;;;8.37;5.37;;;;;;;;;;5079119;28;20228;-32
2024/01/30 03:30:31;;;;;;;7.97;4.90;;;;;;;;;;5082872;28;20276;-35
2024/01/30 03:33:08;;;;;;;8.50;5.33;;;;;;;;;;5089470;28;20200;-32
2024/01/30 03:35:42;;;;;;;7.47;5.20;;;;;;;;;;5108991;28;20245;-32
2024/01/30 03:38:18;;;;;;;10.10;5.43;;;;;;;;;;5101104;28;20204;-35
2024/01/30 03:40:52;;;;;;;8.53;5.87;;;;;;;;;;5080338;28;20277;-34
2024/01/30 03:43:28;;;;;;;7.37;5.20;;;;;;;;;;5101173;28;20270;-31
2024/01/30 03:46:12;;;;;;;7.33;5.30;;;;;;;;;;5099950;28;20188;-29
2024/01/30 03:48:46;;;;;;;7.87;5.07;;;;;;;;;;5095093;28;20780;-30
2024/01/30 03:51:27;;;;;;;8.67;5.60;;;;;;;;;;5088775;28;20242;-32
2024/01/30 03:56:40;;;;;;;7.33;4.67;;;;;;;;;;5062075;28;20217;-29
2024/01/30 03:59:23;;;;;;;10.63;5.43;;;;;;;;;;5072564;28;20219;-35
2024/01/30 04:02:01;;;;;;;11.60;5.90;;;;;;;;;;5044334;28;20297;-38
2024/01/30 04:04:33;;;;;;;33.33;14.67;;;;;;;;;;5045281;28;20213;-32
2024/01/30 04:07:12;;;;;;;14.17;7.80;;;;;;;;;;5047158;28;20612;-32
2024/01/30 04:09:47;;;;;;;11.83;5.90;;;;;;;;;;5044529;28;20218;-32
2024/01/30 04:12:27;;;;;;;10.33;6.20;;;;;;;;;;5039324;28;20238;-34
2024/01/30 04:15:16;;;;;;;10.10;6.87;;;;;;;;;;5049528;28;20206;-34
2024/01/30 04:17:48;;;;;;;9.63;6.73;;;;;;;;;;5047378;28;20198;-30
2024/01/30 04:20:21;;;;;;;9.70;6.90;;;;;;;;;;5043323;28;20325;-34
2024/01/30 04:22:53;;;;;;;10.30;6.47;;;;;;;;;;5041036;28;20218;-33
2024/01/30 04:30:36;;;;;;;14.20;6.40;;;;;;;;;;5050894;28;20238;-32
2024/01/30 04:40:46;;;;;;;10.53;6.23;;;;;;;;;;5065725;28;20237;-35
2024/01/30 04:43:19;;;;;;;8.23;6.27;;;;;;;;;;5074011;28;20216;-31
2024/01/30 04:48:27;;;;;;;7.90;5.17;;;;;;;;;;5046332;28;20272;-32
2024/01/30 04:50:57;;;;;;;10.60;6.13;;;;;;;;;;5045191;28;20251;-35
2024/01/30 04:53:30;;;;;;;7.67;5.50;;;;;;;;;;5051497;28;20221;-35
2024/01/30 04:56:03;;;;;;;9.17;6.30;;;;;;;;;;5039221;28;20209;-35
2024/01/30 04:58:34;;;;;;;9.17;6.27;;;;;;;;;;5051590;28;20734;-37
2024/01/30 05:03:44;;;;;;;8.97;6.00;;;;;;;;;;5078748;28;20213;-31
2024/01/30 05:06:17;;;;;;;9.47;5.87;;;;;;;;;;5055970;28;20244;-36
2024/01/30 05:08:58;;;;;;;8.77;5.93;;;;;;;;;;5063136;28;20422;-33
2024/01/30 05:11:40;;;;;;;10.37;6.07;;;;;;;;;;5060926;28;20225;-35
2024/01/30 05:16:56;;;;;;;9.27;5.70;;;;;;;;;;5070341;28;20269;-37
2024/01/30 05:19:32;;;;;;;7.60;5.50;;;;;;;;;;5061839;28;20295;-35
2024/01/30 05:22:09;;;;;;;8.77;5.03;;;;;;;;;;5064606;28;20686;-31
2024/01/30 05:24:39;;;;;;;9.03;6.23;;;;;;;;;;5067263;28;20229;-36
2024/01/30 05:27:13;;;;;;;8.30;6.30;;;;;;;;;;5068066;28;20655;-34
2024/01/30 05:29:42;;;;;;;7.00;5.30;;;;;;;;;;5071957;28;20220;-35
2024/01/30 05:32:13;;;;;;;7.40;5.13;;;;;;;;;;5069549;28;20297;-36
2024/01/30 05:34:47;;;;;;;7.10;5.70;;;;;;;;;;5064218;28;20214;-31
2024/01/30 05:37:16;;;;;;;7.93;5.53;;;;;;;;;;5069592;28;20284;-30
2024/01/30 05:39:45;;;;;;;9.90;5.67;;;;;;;;;;5064957;28;20282;-30
2024/01/30 05:42:15;;;;;;;8.33;5.97;;;;;;;;;;5068617;28;20312;-31
2024/01/30 05:44:43;;;;;;;11.13;6.07;;;;;;;;;;5075004;28;20220;-29
2024/01/30 05:47:12;;;;;;;7.83;5.53;;;;;;;;;;5073559;28;20244;-34
2024/01/30 05:49:49;;;;;;;8.87;6.10;;;;;;;;;;5068198;28;20248;-32
2024/01/30 05:52:19;;;;;;;6.07;5.20;;;;;;;;;;5074287;28;20208;-31
2024/01/30 05:54:47;;;;;;;7.73;5.40;;;;;;;;;;5068918;28;20210;-33
2024/01/30 05:57:15;;;;;;;5.80;4.77;;;;;;;;;;5066175;28;20212;-32
2024/01/30 05:59:48;;;;;;;6.93;5.40;;;;;;;;;;5074535;28;20236;-32
2024/01/30 06:02:16;;;;;;;9.87;5.97;;;;;;;;;;5073879;28;20232;-32
2024/01/30 06:04:46;;;;;;;8.27;5.07;;;;;;;;;;5070330;28;20209;-35
2024/01/30 06:07:14;;;;;;;6.93;5.20;;;;;;;;;;5065169;28;20279;-34
2024/01/30 06:09:43;;;;;;;8.87;5.93;;;;;;;;;;5068532;28;20256;-34
2024/01/30 06:12:12;;;;;;;6.93;5.37;;;;;;;;;;5065450;28;20201;-31
2024/01/30 06:14:40;;;;;;;10.10;6.77;;;;;;;;;;5072495;28;20213;-31
2024/01/30 06:17:07;;;;;;;10.53;6.07;;;;;;;;;;5072197;28;20241;-31
2024/01/30 06:19:36;;;;;;;10.50;6.10;;;;;;;;;;5067149;28;20725;-38
2024/01/30 06:22:07;;;;;;;10.83;6.03;;;;;;;;;;5071611;28;20287;-33
2024/01/30 06:24:34;;;;;;;8.50;5.80;;;;;;;;;;5065350;28;20267;-34
2024/01/30 06:27:03;;;;;;;9.93;5.67;;;;;;;;;;5061839;28;20205;-33
2024/01/30 06:29:31;;;;;;;10.47;5.73;;;;;;;;;;5070194;28;20232;-36
2024/01/30 06:31:58;;;;;;;10.43;6.47;;;;;;;;;;5064285;28;20247;-30
2024/01/30 06:34:26;;;;;;;8.47;5.53;;;;;;;;;;5061656;28;20213;-35
2024/01/30 06:36:53;;;;;;;9.73;7.10;;;;;;;;;;5070388;28;20209;-29
2024/01/30 06:39:21;;;;;;;8.37;6.20;;;;;;;;;;5065548;28;20233;-33
2024/01/30 06:41:48;;;;;;;7.83;6.23;;;;;;;;;;5069645;28;20229;-29
2024/01/30 06:44:17;;;;;;;9.60;6.27;;;;;;;;;;5071351;28;20213;-31
2024/01/30 06:46:44;;;;;;;8.70;6.47;;;;;;;;;;5071264;28;20292;-32
2024/01/30 06:49:11;;;;;;;13.87;7.70;;;;;;;;;;5070838;28;20198;-30
2024/01/30 06:51:39;;;;;;;9.43;6.07;;;;;;;;;;5073681;28;20197;-33
2024/01/30 06:54:06;;;;;;;11.77;6.20;;;;;;;;;;5072205;28;20215;-35
2024/01/30 06:56:33;;;;;;;8.23;5.70;;;;;;;;;;5066284;28;20307;-33
2024/01/30 06:59:01;;;;;;;9.30;6.40;;;;;;;;;;5073725;28;20209;-35
2024/01/30 07:01:31;;;;;;;7.73;6.23;;;;;;;;;;5073889;28;20235;-33
2024/01/30 07:03:59;;;;;;;9.50;6.40;;;;;;;;;;5058421;28;20258;-37
2024/01/30 07:06:26;;;;;;;9.30;6.60;;;;;;;;;;5073800;28;20205;-35
2024/01/30 07:08:54;;;;;;;11.40;5.83;;;;;;;;;;5072014;28;20205;-34
2024/01/30 07:11:24;;;;;;;7.97;6.07;;;;;;;;;;5065545;28;20289;-33
2024/01/30 07:13:52;;;;;;;9.30;6.87;;;;;;;;;;5071973;28;20803;-35
2024/01/30 07:16:19;;;;;;;9.43;6.20;;;;;;;;;;5072302;28;20205;-33
2024/01/30 07:18:48;;;;;;;10.07;6.83;;;;;;;;;;5069637;28;20207;-32
2024/01/30 07:21:16;;;;;;;11.80;6.23;;;;;;;;;;5061481;28;20228;-36
2024/01/30 07:23:44;;;;;;;11.53;6.33;;;;;;;;;;5071536;28;20205;-30
2024/01/30 07:26:12;;;;;;;11.10;6.60;;;;;;;;;;5067212;28;20201;-36
2024/01/30 07:28:39;;;;;;;12.57;7.20;;;;;;;;;;5068349;28;20644;-35
2024/01/30 07:31:10;;;;;;;8.40;6.40;;;;;;;;;;5072472;28;20630;-35
2024/01/30 07:33:37;;;;;;;11.00;6.43;;;;;;;;;;5063569;28;20214;-36
2024/01/30 07:36:06;;;;;;;9.93;7.20;;;;;;;;;;5065042;28;20212;-34
2024/01/30 07:38:33;;;;;;;10.43;6.93;;;;;;;;;;5071681;28;20689;-37
2024/01/30 07:41:01;;;;;;;12.17;7.87;;;;;;;;;;5066119;28;20223;-33
2024/01/30 07:43:29;;;;;;;12.27;7.87;;;;;;;;;;5069059;28;20206;-34
2024/01/30 07:45:56;;;;;;;12.07;7.23;;;;;;;;;;5071931;28;20216;-32
2024/01/30 07:48:24;;;;;;;25.73;12.77;;;;;;;;;;5068761;28;20243;-32
2024/01/30 07:50:51;;;;;;;12.37;8.00;;;;;;;;;;5070607;28;20227;-32
2024/01/30 07:53:20;;;;;;;17.07;8.73;;;;;;;;;;5071193;28;20209;-35
2024/01/30 07:55:48;;;;;;;11.63;7.67;;;;;;;;;;5058588;28;20778;-32
2024/01/30 07:58:16;;;;;;;14.57;8.17;;;;;;;;;;5067237;28;20198;-30
2024/01/30 08:00:44;;;;;;;14.27;7.73;;;;;;;;;;5071206;28;20292;-35
2024/01/30 08:03:16;;;;;;;11.70;7.10;;;;;;;;;;5068499;28;20304;-32
2024/01/30 08:05:43;;;;;;;12.53;7.73;;;;;;;;;;5069556;28;20304;-34
2024/01/30 08:08:14;;;;;;;12.80;8.03;;;;;;;;;;5071138;28;20250;-30
2024/01/30 08:10:44;;;;;;;11.77;7.47;;;;;;;;;;5059783;28;20230;-34
2024/01/30 08:13:14;;;;;;;14.60;8.10;;;;;;;;;;5068337;28;20197;-33
2024/01/30 08:15:42;;;;;;;12.33;7.90;;;;;;;;;;5072475;28;20205;-34
2024/01/30 08:18:10;;;;;;;13.47;7.80;;;;;;;;;;5069989;28;20205;-37
2024/01/30 08:20:38;;;;;;;13.30;7.77;;;;;;;;;;5066546;28;20226;-33
2024/01/30 08:23:07;;;;;;;11.00;7.20;;;;;;;;;;5064678;28;20312;-37
2024/01/30 08:25:39;;;;;;;12.77;7.70;;;;;;;;;;5061580;28;20206;-31
2024/01/30 08:28:09;;;;;;;11.67;7.77;;;;;;;;;;5064441;28;20209;-36
2024/01/30 08:30:43;;;;;;;12.73;8.07;;;;;;;;;;5072926;28;20311;-35
2024/01/30 08:33:13;;;;;;;14.97;8.83;;;;;;;;;;5073009;28;20205;-36
2024/01/30 08:35:42;;;;;;;14.40;8.57;;;;;;;;;;5063436;28;20210;-34
2024/01/30 08:38:14;;;;;;;14.47;9.57;;;;;;;;;;5072248;28;20223;-32
2024/01/30 08:40:45;;;;;;;14.20;8.57;;;;;;;;;;5061893;28;20316;-36
2024/01/30 08:43:22;;;;;;;14.87;9.90;;;;;;;;;;5068853;28;20205;-32
2024/01/30 08:45:52;;;;;;;13.43;7.90;;;;;;;;;;5072235;28;20228;-35
2024/01/30 08:48:22;;;;;;;13.00;8.40;;;;;;;;;;5065518;28;20212;-33
2024/01/30 08:50:53;;;;;;;14.67;8.73;;;;;;;;;;5070015;28;20285;-32
2024/01/30 08:53:24;;;;;;;13.37;9.20;;;;;;;;;;5073090;28;20213;-33
2024/01/30 08:55:58;;;;;;;11.60;8.47;;;;;;;;;;5065463;28;20233;-35
2024/01/30 08:58:28;;;;;;;16.53;9.80;;;;;;;;;;5072412;28;20301;-31
2024/01/30 09:00:57;;;;;;;14.07;8.67;;;;;;;;;;5072159;28;20229;-31
2024/01/30 09:03:27;;;;;;;15.07;10.20;;;;;;;;;;5067228;28;20232;-37
2024/01/30 09:05:57;;;;;;;13.57;8.57;;;;;;;;;;5072212;28;20292;-32
2024/01/30 09:08:27;;;;;;;12.83;9.10;;;;;;;;;;5071897;28;20213;-33
2024/01/30 09:10:56;;;;;;;16.23;8.57;;;;;;;;;;5058861;28;20242;-35
2024/01/30 09:13:26;;;;;;;14.80;9.47;;;;;;;;;;5075863;28;20279;-39
2024/01/30 09:15:59;;;;;;;42.43;20.50;;;;;;;;;;5075789;28;20219;-36
2024/01/30 09:18:29;;;;;;;46.17;23.20;;;;;;;;;;5075492;28;20220;-32
2024/01/30 09:20:57;;;;;;;15.13;9.30;;;;;;;;;;5068926;28;20241;-33
2024/01/30 09:23:26;;;;;;;13.70;8.67;;;;;;;;;;5074874;28;20221;-32
2024/01/30 09:25:58;;;;;;;12.77;8.30;;;;;;;;;;5068332;28;20209;-35
2024/01/30 09:28:26;;;;;;;15.87;9.07;;;;;;;;;;5074648;28;20262;-32
2024/01/30 09:30:54;;;;;;;11.87;8.57;;;;;;;;;;5074048;28;20286;-36
2024/01/30 09:33:23;;;;;;;14.30;8.50;;;;;;;;;;5075028;28;20216;-29
2024/01/30 09:35:51;;;;;;;14.30;9.07;;;;;;;;;;5061557;28;20213;-32
2024/01/30 09:38:21;;;;;;;11.80;8.90;;;;;;;;;;5068343;28;20631;-36
2024/01/30 09:40:56;;;;;;;15.60;9.00;;;;;;;;;;5069236;28;20232;-34
2024/01/30 09:43:24;;;;;;;11.80;8.10;;;;;;;;;;5075147;28;20217;-35
2024/01/30 09:45:52;;;;;;;11.07;8.67;;;;;;;;;;5072546;28;20304;-33
2024/01/30 09:48:24;;;;;;;13.47;9.10;;;;;;;;;;5075140;28;20212;-31
2024/01/30 09:50:53;;;;;;;13.27;8.73;;;;;;;;;;5067112;28;20714;-32
2024/01/30 09:53:22;;;;;;;15.33;8.80;;;;;;;;;;5075610;28;20197;-34
2024/01/30 09:55:52;;;;;;;15.30;8.53;;;;;;;;;;5064796;28;20264;-36
2024/01/30 09:58:20;;;;;;;12.13;8.37;;;;;;;;;;5069442;28;20201;-33
2024/01/30 10:00:51;;;;;;;12.97;8.80;;;;;;;;;;5076044;28;20232;-34
2024/01/30 10:05:53;;;;;;;11.27;8.27;;;;;;;;;;5073079;28;20243;-32
2024/01/30 10:08:25;;;;;;;11.70;8.00;;;;;;;;;;5079572;28;20220;-33
2024/01/30 10:10:54;;;;;;;15.17;10.23;;;;;;;;;;5068739;28;20225;-36
2024/01/30 10:13:24;;;;;;;13.80;9.07;;;;;;;;;;5069664;28;20205;-33
2024/01/30 10:16:06;;;;;;;15.67;8.20;;;;;;;;;;5074954;28;20205;-35
2024/01/30 10:18:39;;;;;;;10.20;7.70;;;;;;;;;;5071604;28;20304;-30
2024/01/30 10:21:11;;;;;;;11.77;8.53;;;;;;;;;;5067411;28;20226;-33
2024/01/30 10:23:42;;;;;;;14.13;9.00;;;;;;;;;;5073524;28;20252;-32
2024/01/30 10:26:11;;;;;;;11.87;7.53;;;;;;;;;;5068963;28;20209;-33
2024/01/30 10:28:44;;;;;;;14.77;8.97;;;;;;;;;;5069874;28;20212;-32
2024/01/30 10:31:12;;;;;;;13.57;8.53;;;;;;;;;;5069215;28;20295;-34
2024/01/30 10:33:48;;;;;;;12.43;8.57;;;;;;;;;;5074344;28;20208;-36
2024/01/30 10:36:20;;;;;;;14.77;8.13;;;;;;;;;;5066706;28;20212;-29
2024/01/30 10:38:49;;;;;;;10.33;7.63;;;;;;;;;;5063306;28;20631;-32
2024/01/30 10:41:22;;;;;;;11.70;7.80;;;;;;;;;;5064928;28;20545;-35
2024/01/30 10:44:14;;;;;;;11.80;7.67;;;;;;;;;;5074315;28;20275;-38
2024/01/30 10:46:43;;;;;;;13.90;8.40;;;;;;;;;;5074422;28;20213;-31
2024/01/30 10:49:14;;;;;;;8.83;7.03;;;;;;;;;;5068012;28;20747;-32
2024/01/30 10:51:44;;;;;;;11.30;7.03;;;;;;;;;;5071009;28;20209;-35
2024/01/30 10:54:15;;;;;;;9.37;6.93;;;;;;;;;;5071972;28;20205;-38
2024/01/30 10:56:48;;;;;;;11.87;7.33;;;;;;;;;;5056875;28;20216;-32
2024/01/30 10:59:17;;;;;;;8.17;6.37;;;;;;;;;;5065125;28;20244;-35
2024/01/30 11:01:51;;;;;;;9.57;6.40;;;;;;;;;;5073753;28;20300;-34
2024/01/30 11:04:20;;;;;;;9.07;6.10;;;;;;;;;;5061880;28;20264;-32
2024/01/30 11:06:51;;;;;;;9.07;6.60;;;;;;;;;;5071922;28;20288;-33
2024/01/30 11:09:20;;;;;;;10.37;6.43;;;;;;;;;;5061474;28;20205;-32
2024/01/30 11:11:51;;;;;;;10.17;6.80;;;;;;;;;;5066487;28;20214;-37
2024/01/30 11:14:26;;;;;;;9.73;6.77;;;;;;;;;;5065499;28;20206;-32
2024/01/30 11:16:54;;;;;;;10.30;6.43;;;;;;;;;;5072988;28;20211;-31
2024/01/30 11:19:28;;;;;;;8.67;5.97;;;;;;;;;;5066552;28;20209;-35
2024/01/30 11:21:58;;;;;;;7.47;5.30;;;;;;;;;;5071498;28;20232;-32
2024/01/30 11:24:27;;;;;;;6.90;5.83;;;;;;;;;;5068863;28;20703;-33
2024/01/30 11:27:03;;;;;;;9.17;5.90;;;;;;;;;;5069776;28;20288;-29
2024/01/30 11:29:30;;;;;;;7.27;5.27;;;;;;;;;;5072608;28;20271;-32
2024/01/30 11:31:59;;;;;;;9.67;5.90;;;;;;;;;;5071991;28;20750;-37
2024/01/30 11:34:27;;;;;;;7.77;5.80;;;;;;;;;;5068687;28;20228;-38
2024/01/30 11:36:59;;;;;;;9.20;6.03;;;;;;;;;;5067496;28;20232;-32
2024/01/30 11:39:28;;;;;;;8.10;5.80;;;;;;;;;;5066465;28;20297;-34
2024/01/30 11:41:56;;;;;;;7.40;5.80;;;;;;;;;;5068885;28;20201;-31
2024/01/30 11:44:24;;;;;;;8.07;5.40;;;;;;;;;;5072324;28;20263;-35
2024/01/30 11:46:53;;;;;;;6.63;5.00;;;;;;;;;;5071757;28;20209;-30
2024/01/30 11:49:21;;;;;;;7.97;5.23;;;;;;;;;;5060354;28;20205;-29
2024/01/30 11:51:53;;;;;;;7.47;6.03;;;;;;;;;;5069204;28;20232;-32
2024/01/30 11:54:20;;;;;;;7.17;5.07;;;;;;;;;;5061168;28;20214;-33
2024/01/30 11:56:49;;;;;;;8.53;5.70;;;;;;;;;;5064735;28;20229;-34
2024/01/30 11:59:22;;;;;;;7.97;5.90;;;;;;;;;;5072122;28;20201;-36
2024/01/30 12:01:54;;;;;;;6.57;5.10;;;;;;;;;;5072453;28;20206;-34
2024/01/30 12:04:30;;;;;;;7.13;5.40;;;;;;;;;;5071497;28;20228;-32
2024/01/30 12:06:58;;;;;;;7.60;5.57;;;;;;;;;;5070306;28;20219;-37
2024/01/30 12:14:35;;;;;;;7.57;5.30;;;;;;;;;;5074584;28;20231;-28
2024/01/30 12:17:03;;;;;;;8.80;5.67;;;;;;;;;;5083091;28;20266;-26
2024/01/30 12:22:02;;;;;;;8.37;5.60;;;;;;;;;;5071400;28;20244;-36
2024/01/30 12:24:31;;;;;;;8.30;5.87;;;;;;;;;;5072761;28;20205;-34
2024/01/30 12:27:00;;;;;;;9.13;5.63;;;;;;;;;;5061066;28;20209;-37
2024/01/30 12:29:27;;;;;;;7.23;5.37;;;;;;;;;;5078738;28;20205;-36
2024/01/30 12:31:57;;;;;;;7.87;5.97;;;;;;;;;;5070986;28;20205;-33
2024/01/30 12:34:26;;;;;;;9.47;5.40;;;;;;;;;;5060093;28;20266;-36
2024/01/30 12:36:54;;;;;;;8.47;5.60;;;;;;;;;;5070811;28;20301;-30
2024/01/30 12:39:24;;;;;;;8.53;5.50;;;;;;;;;;5065020;28;20309;-32
2024/01/30 12:41:54;;;;;;;9.13;6.50;;;;;;;;;;5064927;28;20231;-35
2024/01/30 12:44:22;;;;;;;9.73;6.20;;;;;;;;;;5070901;28;20225;-36
2024/01/30 12:46:49;;;;;;;7.47;6.20;;;;;;;;;;5072448;28;20220;-33
2024/01/30 12:49:21;;;;;;;8.07;5.93;;;;;;;;;;5066509;28;21019;-36
2024/01/30 12:51:48;;;;;;;8.97;6.63;;;;;;;;;;5074385;28;20213;-30
2024/01/30 12:54:18;;;;;;;10.30;6.00;;;;;;;;;;5071803;28;20250;-33
2024/01/30 12:56:48;;;;;;;8.87;5.63;;;;;;;;;;5063422;28;20209;-34
2024/01/30 12:59:16;;;;;;;8.13;5.70;;;;;;;;;;5074395;28;20224;-31
2024/01/30 13:01:45;;;;;;;10.37;5.87;;;;;;;;;;5074945;28;20288;-32
2024/01/30 13:04:14;;;;;;;8.13;6.07;;;;;;;;;;5070274;28;20257;-33
2024/01/30 13:06:42;;;;;;;15.73;6.13;;;;;;;;;;5070730;28;20292;-31
2024/01/30 13:09:10;;;;;;;7.27;6.00;;;;;;;;;;5069354;28;20679;-39
2024/01/30 13:11:40;;;;;;;8.63;5.97;;;;;;;;;;5072899;28;20284;-32
2024/01/30 13:14:09;;;;;;;10.67;6.03;;;;;;;;;;5073644;28;20197;-32
2024/01/30 13:16:36;;;;;;;7.70;5.77;;;;;;;;;;5072560;28;20232;-32
2024/01/30 13:19:04;;;;;;;9.00;6.20;;;;;;;;;;5069994;28;20209;-31
2024/01/30 13:21:32;;;;;;;11.03;5.93;;;;;;;;;;5066714;28;20229;-35
2024/01/30 13:24:03;;;;;;;10.80;6.10;;;;;;;;;;5071574;28;20221;-34
2024/01/30 13:26:30;;;;;;;11.57;6.23;;;;;;;;;;5064319;28;20209;-33
2024/01/30 13:28:58;;;;;;;13.13;6.73;;;;;;;;;;5070397;28;20231;-33
2024/01/30 13:31:27;;;;;;;10.20;6.47;;;;;;;;;;5075107;28;20231;-35
2024/01/30 13:33:55;;;;;;;8.17;5.80;;;;;;;;;;5066718;28;20531;-32
2024/01/30 13:36:22;;;;;;;7.43;5.57;;;;;;;;;;5073339;28;20205;-34
2024/01/30 13:38:50;;;;;;;8.80;5.70;;;;;;;;;;5072665;28;20259;-40
2024/01/30 13:41:21;;;;;;;7.73;5.60;;;;;;;;;;5058791;28;20238;-34
2024/01/30 13:43:48;;;;;;;10.60;6.63;;;;;;;;;;5069087;28;20233;-36
2024/01/30 13:46:16;;;;;;;11.83;6.60;;;;;;;;;;5073683;28;20209;-32
2024/01/30 13:48:44;;;;;;;7.53;5.60;;;;;;;;;;5071614;28;20213;-32
2024/01/30 13:51:12;;;;;;;9.60;5.63;;;;;;;;;;5064124;28;20232;-34
2024/01/30 13:53:40;;;;;;;7.67;5.17;;;;;;;;;;5073743;28;20266;-32
2024/01/30 13:56:08;;;;;;;8.87;6.13;;;;;;;;;;5069446;28;20208;-33
2024/01/30 13:58:38;;;;;;;8.67;6.03;;;;;;;;;;5072085;28;20232;-35
2024/01/30 14:01:06;;;;;;;9.67;5.77;;;;;;;;;;5073397;28;20243;-36
2024/01/30 14:03:33;;;;;;;10.27;6.33;;;;;;;;;;5068183;28;20228;-33
2024/01/30 14:06:01;;;;;;;10.77;6.30;;;;;;;;;;5072289;28;20268;-32
2024/01/30 14:08:29;;;;;;;12.97;6.77;;;;;;;;;;5065581;28;20269;-33
2024/01/30 14:10:59;;;;;;;10.90;6.40;;;;;;;;;;5063773;28;20221;-31
2024/01/30 14:13:27;;;;;;;10.93;7.03;;;;;;;;;;5073035;28;20219;-38
2024/01/30 14:15:57;;;;;;;9.70;7.07;;;;;;;;;;5073148;28;20212;-38
2024/01/30 14:18:27;;;;;;;11.47;6.87;;;;;;;;;;5070119;28;20210;-32
2024/01/30 14:20:57;;;;;;;11.37;6.90;;;;;;;;;;5066578;28;20290;-31
2024/01/30 14:23:27;;;;;;;13.33;7.17;;;;;;;;;;5072180;28;20252;-32
2024/01/30 14:25:54;;;;;;;14.93;7.73;;;;;;;;;;5065966;28;20266;-36
2024/01/30 14:28:22;;;;;;;8.43;6.83;;;;;;;;;;5071237;28;20213;-36
2024/01/30 14:30:54;;;;;;;10.27;6.83;;;;;;;;;;5072373;28;20228;-32
2024/01/30 14:33:22;;;;;;;15.00;7.07;;;;;;;;;;5070723;28;20201;-34
2024/01/30 14:35:53;;;;;;;14.43;7.13;;;;;;;;;;5060259;28;20202;-32
2024/01/30 14:38:21;;;;;;;10.40;7.60;;;;;;;;;;5073117;28;20209;-32
2024/01/30 14:40:49;;;;;;;11.87;7.33;;;;;;;;;;5066881;28;20217;-37
2024/01/30 14:43:20;;;;;;;10.63;7.40;;;;;;;;;;5072614;28;20360;-33
2024/01/30 14:45:49;;;;;;;12.73;7.43;;;;;;;;;;5073348;28;20258;-33
2024/01/30 14:48:18;;;;;;;10.27;6.90;;;;;;;;;;5061025;28;20224;-30
2024/01/30 14:50:49;;;;;;;9.17;7.30;;;;;;;;;;5072378;28;20240;-35
2024/01/30 14:53:17;;;;;;;10.97;8.07;;;;;;;;;;5072523;28;20205;-34
2024/01/30 14:55:45;;;;;;;16.87;8.57;;;;;;;;;;5065015;28;20206;-29
2024/01/30 14:58:13;;;;;;;11.80;7.30;;;;;;;;;;5072540;28;20288;-33
2024/01/30 15:00:43;;;;;;;11.33;7.87;;;;;;;;;;5072790;28;20228;-32
2024/01/30 15:03:13;;;;;;;11.37;7.90;;;;;;;;;;5068746;28;20226;-35
2024/01/30 15:05:41;;;;;;;18.03;8.17;;;;;;;;;;5064948;28;20212;-33
2024/01/30 15:08:10;;;;;;;14.30;8.70;;;;;;;;;;5059318;28;20611;-29
2024/01/30 15:10:37;;;;;;;12.53;8.67;;;;;;;;;;5061579;28;20229;-31
2024/01/30 15:13:08;;;;;;;10.93;8.47;;;;;;;;;;5065854;28;20251;-35
2024/01/30 15:15:36;;;;;;;13.87;8.73;;;;;;;;;;5064699;28;20206;-33
2024/01/30 15:18:04;;;;;;;18.17;9.13;;;;;;;;;;5060988;28;20663;-32
2024/01/30 15:20:32;;;;;;;12.17;7.67;;;;;;;;;;5064626;28;20233;-33
2024/01/30 15:22:59;;;;;;;11.67;8.07;;;;;;;;;;5064150;28;20663;-36
2024/01/30 15:25:29;;;;;;;14.47;8.10;;;;;;;;;;5065159;28;20208;-32
2024/01/30 15:27:57;;;;;;;12.80;8.03;;;;;;;;;;5067860;28;20292;-30